sensor_id;sensor_type;location;lat;lon;timestamp;P1;durP1;ratioP1;P2;durP2;ratioP2
59571;SDS011;59406;45.602;11.904;2023-01-08T00:02:22;58.97;;;29.47;;
59571;SDS011;59406;45.602;11.904;2023-01-08T00:04:48;57.60;;;27.77;;
59571;SDS011;59406;45.602;11.904;2023-01-08T00:07:14;55.28;;;26.80;;
59571;SDS011;59406;45.602;11.904;2023-01-08T00:09:40;54.93;;;28.67;;
59571;SDS011;59406;45.602;11.904;2023-01-08T00:12:06;65.80;;;33.60;;
59571;SDS011;59406;45.602;11.904;2023-01-08T00:14:32;61.88;;;32.95;;
59571;SDS011;59406;45.602;11.904;2023-01-08T00:16:58;59.47;;;29.17;;
59571;SDS011;59406;45.602;11.904;2023-01-08T00:19:23;53.33;;;28.30;;
59571;SDS011;59406;45.602;11.904;2023-01-08T00:21:49;54.50;;;26.40;;
59571;SDS011;59406;45.602;11.904;2023-01-08T00:24:15;65.17;;;34.67;;
59571;SDS011;59406;45.602;11.904;2023-01-08T00:26:41;62.10;;;31.95;;
59571;SDS011;59406;45.602;11.904;2023-01-08T00:29:07;67.63;;;35.17;;
59571;SDS011;59406;45.602;11.904;2023-01-08T00:31:32;65.40;;;32.67;;
59571;SDS011;59406;45.602;11.904;2023-01-08T00:33:58;62.47;;;32.92;;
59571;SDS011;59406;45.602;11.904;2023-01-08T00:36:24;72.77;;;35.80;;
59571;SDS011;59406;45.602;11.904;2023-01-08T00:38:50;58.95;;;28.90;;
59571;SDS011;59406;45.602;11.904;2023-01-08T00:41:16;62.95;;;33.65;;
59571;SDS011;59406;45.602;11.904;2023-01-08T00:43:42;50.83;;;28.87;;
59571;SDS011;59406;45.602;11.904;2023-01-08T00:46:08;53.90;;;27.63;;
59571;SDS011;59406;45.602;11.904;2023-01-08T00:48:34;58.97;;;29.02;;
59571;SDS011;59406;45.602;11.904;2023-01-08T00:51:03;68.53;;;35.88;;
59571;SDS011;59406;45.602;11.904;2023-01-08T00:53:30;62.20;;;31.25;;
59571;SDS011;59406;45.602;11.904;2023-01-08T00:56:00;55.73;;;27.97;;
59571;SDS011;59406;45.602;11.904;2023-01-08T00:58:27;50.15;;;26.33;;
59571;SDS011;59406;45.602;11.904;2023-01-08T01:00:53;52.50;;;27.00;;
59571;SDS011;59406;45.602;11.904;2023-01-08T01:03:19;62.95;;;32.33;;
59571;SDS011;59406;45.602;11.904;2023-01-08T01:05:45;61.40;;;32.27;;
59571;SDS011;59406;45.602;11.904;2023-01-08T01:08:11;48.30;;;25.87;;
59571;SDS011;59406;45.602;11.904;2023-01-08T01:10:37;54.50;;;28.17;;
59571;SDS011;59406;45.602;11.904;2023-01-08T01:13:04;51.65;;;26.55;;
59571;SDS011;59406;45.602;11.904;2023-01-08T01:15:30;54.03;;;28.88;;
59571;SDS011;59406;45.602;11.904;2023-01-08T01:17:56;50.87;;;25.73;;
59571;SDS011;59406;45.602;11.904;2023-01-08T01:20:22;52.05;;;27.15;;
59571;SDS011;59406;45.602;11.904;2023-01-08T01:22:48;53.13;;;27.27;;
59571;SDS011;59406;45.602;11.904;2023-01-08T01:25:15;51.55;;;26.38;;
59571;SDS011;59406;45.602;11.904;2023-01-08T01:27:41;67.78;;;36.25;;
59571;SDS011;59406;45.602;11.904;2023-01-08T01:30:07;56.43;;;29.83;;
59571;SDS011;59406;45.602;11.904;2023-01-08T01:32:34;56.47;;;29.75;;
59571;SDS011;59406;45.602;11.904;2023-01-08T01:35:00;60.00;;;31.27;;
59571;SDS011;59406;45.602;11.904;2023-01-08T01:37:26;58.03;;;29.63;;
59571;SDS011;59406;45.602;11.904;2023-01-08T01:39:52;72.87;;;36.50;;
59571;SDS011;59406;45.602;11.904;2023-01-08T01:42:20;52.60;;;27.45;;
59571;SDS011;59406;45.602;11.904;2023-01-08T01:47:57;63.53;;;33.53;;
59571;SDS011;59406;45.602;11.904;2023-01-08T01:53:10;51.07;;;27.43;;
59571;SDS011;59406;45.602;11.904;2023-01-08T01:55:42;72.28;;;37.15;;
59571;SDS011;59406;45.602;11.904;2023-01-08T01:58:16;58.92;;;31.27;;
59571;SDS011;59406;45.602;11.904;2023-01-08T02:00:50;63.28;;;31.73;;
59571;SDS011;59406;45.602;11.904;2023-01-08T02:03:20;70.10;;;35.13;;
59571;SDS011;59406;45.602;11.904;2023-01-08T02:09:06;65.20;;;33.38;;
59571;SDS011;59406;45.602;11.904;2023-01-08T02:14:12;67.93;;;33.08;;
59571;SDS011;59406;45.602;11.904;2023-01-08T02:19:42;61.57;;;29.60;;
59571;SDS011;59406;45.602;11.904;2023-01-08T02:22:14;60.78;;;28.88;;
59571;SDS011;59406;45.602;11.904;2023-01-08T02:27:42;58.13;;;28.80;;
59571;SDS011;59406;45.602;11.904;2023-01-08T02:30:11;60.42;;;28.80;;
59571;SDS011;59406;45.602;11.904;2023-01-08T02:32:38;64.53;;;34.20;;
59571;SDS011;59406;45.602;11.904;2023-01-08T02:35:06;70.03;;;35.97;;
59571;SDS011;59406;45.602;11.904;2023-01-08T02:37:33;68.63;;;35.45;;
59571;SDS011;59406;45.602;11.904;2023-01-08T02:42:46;72.90;;;34.83;;
59571;SDS011;59406;45.602;11.904;2023-01-08T02:45:20;60.93;;;30.17;;
59571;SDS011;59406;45.602;11.904;2023-01-08T02:50:41;60.53;;;32.33;;
59571;SDS011;59406;45.602;11.904;2023-01-08T02:53:19;58.63;;;29.65;;
59571;SDS011;59406;45.602;11.904;2023-01-08T02:55:52;53.40;;;27.02;;
59571;SDS011;59406;45.602;11.904;2023-01-08T02:58:22;57.00;;;27.17;;
59571;SDS011;59406;45.602;11.904;2023-01-08T03:00:50;50.17;;;25.58;;
59571;SDS011;59406;45.602;11.904;2023-01-08T03:03:18;53.08;;;23.92;;
59571;SDS011;59406;45.602;11.904;2023-01-08T03:05:54;53.25;;;25.17;;
59571;SDS011;59406;45.602;11.904;2023-01-08T03:08:36;53.67;;;26.08;;
59571;SDS011;59406;45.602;11.904;2023-01-08T03:11:11;72.10;;;33.37;;
59571;SDS011;59406;45.602;11.904;2023-01-08T03:13:59;63.13;;;27.30;;
59571;SDS011;59406;45.602;11.904;2023-01-08T03:16:28;48.70;;;25.05;;
59571;SDS011;59406;45.602;11.904;2023-01-08T03:19:22;56.63;;;28.73;;
59571;SDS011;59406;45.602;11.904;2023-01-08T03:21:59;57.92;;;28.40;;
59571;SDS011;59406;45.602;11.904;2023-01-08T03:24:27;59.60;;;28.33;;
59571;SDS011;59406;45.602;11.904;2023-01-08T03:26:57;52.65;;;25.08;;
59571;SDS011;59406;45.602;11.904;2023-01-08T03:29:27;57.25;;;27.48;;
59571;SDS011;59406;45.602;11.904;2023-01-08T03:31:57;56.85;;;28.27;;
59571;SDS011;59406;45.602;11.904;2023-01-08T03:34:27;53.10;;;26.75;;
59571;SDS011;59406;45.602;11.904;2023-01-08T03:37:00;63.53;;;31.67;;
59571;SDS011;59406;45.602;11.904;2023-01-08T03:39:30;52.78;;;28.13;;
59571;SDS011;59406;45.602;11.904;2023-01-08T03:42:05;59.22;;;28.42;;
59571;SDS011;59406;45.602;11.904;2023-01-08T03:44:34;61.13;;;29.88;;
59571;SDS011;59406;45.602;11.904;2023-01-08T03:47:00;63.97;;;32.42;;
59571;SDS011;59406;45.602;11.904;2023-01-08T03:49:28;62.63;;;30.43;;
59571;SDS011;59406;45.602;11.904;2023-01-08T03:51:54;66.80;;;32.85;;
59571;SDS011;59406;45.602;11.904;2023-01-08T03:54:24;52.88;;;28.15;;
59571;SDS011;59406;45.602;11.904;2023-01-08T03:56:56;59.55;;;31.10;;
59571;SDS011;59406;45.602;11.904;2023-01-08T03:59:22;59.88;;;31.23;;
59571;SDS011;59406;45.602;11.904;2023-01-08T04:01:48;55.80;;;30.07;;
59571;SDS011;59406;45.602;11.904;2023-01-08T04:04:14;59.85;;;29.27;;
59571;SDS011;59406;45.602;11.904;2023-01-08T04:06:41;55.63;;;25.85;;
59571;SDS011;59406;45.602;11.904;2023-01-08T04:09:07;63.15;;;33.03;;
59571;SDS011;59406;45.602;11.904;2023-01-08T04:11:33;58.80;;;31.00;;
59571;SDS011;59406;45.602;11.904;2023-01-08T04:13:59;57.00;;;30.48;;
59571;SDS011;59406;45.602;11.904;2023-01-08T04:16:25;57.88;;;30.45;;
59571;SDS011;59406;45.602;11.904;2023-01-08T04:18:51;59.40;;;30.53;;
59571;SDS011;59406;45.602;11.904;2023-01-08T04:21:17;62.20;;;30.00;;
59571;SDS011;59406;45.602;11.904;2023-01-08T04:23:43;58.15;;;29.25;;
59571;SDS011;59406;45.602;11.904;2023-01-08T04:26:09;43.73;;;23.93;;
59571;SDS011;59406;45.602;11.904;2023-01-08T04:28:35;55.50;;;30.02;;
59571;SDS011;59406;45.602;11.904;2023-01-08T04:31:07;71.07;;;37.00;;
59571;SDS011;59406;45.602;11.904;2023-01-08T04:33:34;62.22;;;32.97;;
59571;SDS011;59406;45.602;11.904;2023-01-08T04:36:01;62.53;;;31.98;;
59571;SDS011;59406;45.602;11.904;2023-01-08T04:38:28;76.83;;;38.07;;
59571;SDS011;59406;45.602;11.904;2023-01-08T04:40:57;64.78;;;31.67;;
59571;SDS011;59406;45.602;11.904;2023-01-08T04:43:24;57.47;;;29.35;;
59571;SDS011;59406;45.602;11.904;2023-01-08T04:45:51;54.92;;;28.88;;
59571;SDS011;59406;45.602;11.904;2023-01-08T04:48:17;64.70;;;31.90;;
59571;SDS011;59406;45.602;11.904;2023-01-08T04:50:44;74.93;;;37.25;;
59571;SDS011;59406;45.602;11.904;2023-01-08T04:53:10;70.45;;;35.95;;
59571;SDS011;59406;45.602;11.904;2023-01-08T04:55:35;66.95;;;33.55;;
59571;SDS011;59406;45.602;11.904;2023-01-08T04:58:01;60.97;;;29.77;;
59571;SDS011;59406;45.602;11.904;2023-01-08T05:00:27;71.90;;;35.63;;
59571;SDS011;59406;45.602;11.904;2023-01-08T05:02:53;73.80;;;36.17;;
59571;SDS011;59406;45.602;11.904;2023-01-08T05:05:19;61.78;;;31.67;;
59571;SDS011;59406;45.602;11.904;2023-01-08T05:07:45;64.30;;;32.47;;
59571;SDS011;59406;45.602;11.904;2023-01-08T05:10:11;60.70;;;29.08;;
59571;SDS011;59406;45.602;11.904;2023-01-08T05:12:37;58.35;;;27.73;;
59571;SDS011;59406;45.602;11.904;2023-01-08T05:15:03;50.37;;;27.27;;
59571;SDS011;59406;45.602;11.904;2023-01-08T05:17:29;49.25;;;26.65;;
59571;SDS011;59406;45.602;11.904;2023-01-08T05:19:55;59.92;;;30.98;;
59571;SDS011;59406;45.602;11.904;2023-01-08T05:22:21;64.67;;;33.83;;
59571;SDS011;59406;45.602;11.904;2023-01-08T05:24:47;72.67;;;37.23;;
59571;SDS011;59406;45.602;11.904;2023-01-08T05:27:13;61.28;;;30.85;;
59571;SDS011;59406;45.602;11.904;2023-01-08T05:29:39;59.80;;;29.52;;
59571;SDS011;59406;45.602;11.904;2023-01-08T05:32:05;60.57;;;32.40;;
59571;SDS011;59406;45.602;11.904;2023-01-08T05:34:37;67.18;;;32.85;;
59571;SDS011;59406;45.602;11.904;2023-01-08T05:37:03;62.00;;;30.15;;
59571;SDS011;59406;45.602;11.904;2023-01-08T05:39:29;59.73;;;30.73;;
59571;SDS011;59406;45.602;11.904;2023-01-08T05:41:55;69.70;;;34.90;;
59571;SDS011;59406;45.602;11.904;2023-01-08T05:44:21;53.75;;;26.90;;
59571;SDS011;59406;45.602;11.904;2023-01-08T05:46:47;70.57;;;34.03;;
59571;SDS011;59406;45.602;11.904;2023-01-08T05:49:13;53.77;;;28.53;;
59571;SDS011;59406;45.602;11.904;2023-01-08T05:51:39;53.38;;;27.10;;
59571;SDS011;59406;45.602;11.904;2023-01-08T05:54:05;50.75;;;25.30;;
59571;SDS011;59406;45.602;11.904;2023-01-08T05:56:32;57.00;;;29.70;;
59571;SDS011;59406;45.602;11.904;2023-01-08T05:58:58;70.07;;;35.83;;
59571;SDS011;59406;45.602;11.904;2023-01-08T06:01:24;69.05;;;38.45;;
59571;SDS011;59406;45.602;11.904;2023-01-08T06:03:50;56.67;;;30.90;;
59571;SDS011;59406;45.602;11.904;2023-01-08T06:06:18;64.82;;;33.95;;
59571;SDS011;59406;45.602;11.904;2023-01-08T06:08:44;70.30;;;36.40;;
59571;SDS011;59406;45.602;11.904;2023-01-08T06:11:10;64.40;;;34.27;;
59571;SDS011;59406;45.602;11.904;2023-01-08T06:13:39;59.55;;;33.20;;
59571;SDS011;59406;45.602;11.904;2023-01-08T06:16:07;63.47;;;33.38;;
59571;SDS011;59406;45.602;11.904;2023-01-08T06:18:33;63.92;;;34.00;;
59571;SDS011;59406;45.602;11.904;2023-01-08T06:21:00;68.40;;;34.47;;
59571;SDS011;59406;45.602;11.904;2023-01-08T06:23:26;56.80;;;29.02;;
59571;SDS011;59406;45.602;11.904;2023-01-08T06:25:55;50.92;;;29.23;;
59571;SDS011;59406;45.602;11.904;2023-01-08T06:28:23;64.97;;;35.07;;
59571;SDS011;59406;45.602;11.904;2023-01-08T06:30:50;54.58;;;28.10;;
59571;SDS011;59406;45.602;11.904;2023-01-08T06:33:16;66.70;;;36.72;;
59571;SDS011;59406;45.602;11.904;2023-01-08T06:35:42;62.88;;;33.03;;
59571;SDS011;59406;45.602;11.904;2023-01-08T06:38:08;60.50;;;30.73;;
59571;SDS011;59406;45.602;11.904;2023-01-08T06:40:34;54.83;;;28.50;;
59571;SDS011;59406;45.602;11.904;2023-01-08T06:43:03;58.88;;;30.80;;
59571;SDS011;59406;45.602;11.904;2023-01-08T06:45:30;58.17;;;32.40;;
59571;SDS011;59406;45.602;11.904;2023-01-08T06:48:03;60.70;;;30.60;;
59571;SDS011;59406;45.602;11.904;2023-01-08T06:50:31;53.95;;;30.00;;
59571;SDS011;59406;45.602;11.904;2023-01-08T06:52:58;61.17;;;34.22;;
59571;SDS011;59406;45.602;11.904;2023-01-08T06:55:25;62.35;;;34.55;;
59571;SDS011;59406;45.602;11.904;2023-01-08T06:57:55;54.15;;;30.45;;
59571;SDS011;59406;45.602;11.904;2023-01-08T07:00:22;49.83;;;26.87;;
59571;SDS011;59406;45.602;11.904;2023-01-08T07:02:50;53.75;;;28.45;;
59571;SDS011;59406;45.602;11.904;2023-01-08T07:05:17;53.55;;;31.33;;
59571;SDS011;59406;45.602;11.904;2023-01-08T07:07:43;55.22;;;30.08;;
59571;SDS011;59406;45.602;11.904;2023-01-08T07:10:09;51.83;;;27.90;;
59571;SDS011;59406;45.602;11.904;2023-01-08T07:12:35;61.10;;;32.97;;
59571;SDS011;59406;45.602;11.904;2023-01-08T07:15:02;55.30;;;30.38;;
59571;SDS011;59406;45.602;11.904;2023-01-08T07:17:28;55.45;;;30.10;;
59571;SDS011;59406;45.602;11.904;2023-01-08T07:19:56;53.58;;;29.55;;
59571;SDS011;59406;45.602;11.904;2023-01-08T07:22:22;64.67;;;36.40;;
59571;SDS011;59406;45.602;11.904;2023-01-08T07:24:48;55.33;;;30.55;;
59571;SDS011;59406;45.602;11.904;2023-01-08T07:27:14;62.10;;;36.17;;
59571;SDS011;59406;45.602;11.904;2023-01-08T07:29:40;60.63;;;33.43;;
59571;SDS011;59406;45.602;11.904;2023-01-08T07:32:06;57.47;;;33.00;;
59571;SDS011;59406;45.602;11.904;2023-01-08T07:34:32;51.55;;;28.85;;
59571;SDS011;59406;45.602;11.904;2023-01-08T07:36:59;61.08;;;32.83;;
59571;SDS011;59406;45.602;11.904;2023-01-08T07:39:25;55.40;;;32.25;;
59571;SDS011;59406;45.602;11.904;2023-01-08T07:41:51;53.50;;;29.00;;
59571;SDS011;59406;45.602;11.904;2023-01-08T07:44:17;52.17;;;28.48;;
59571;SDS011;59406;45.602;11.904;2023-01-08T07:46:43;48.17;;;27.83;;
59571;SDS011;59406;45.602;11.904;2023-01-08T07:49:10;46.77;;;26.57;;
59571;SDS011;59406;45.602;11.904;2023-01-08T07:51:36;42.28;;;23.90;;
59571;SDS011;59406;45.602;11.904;2023-01-08T07:54:02;48.67;;;26.10;;
59571;SDS011;59406;45.602;11.904;2023-01-08T07:56:28;49.55;;;28.33;;
59571;SDS011;59406;45.602;11.904;2023-01-08T07:58:54;50.10;;;28.07;;
59571;SDS011;59406;45.602;11.904;2023-01-08T08:01:20;53.80;;;31.47;;
59571;SDS011;59406;45.602;11.904;2023-01-08T08:03:47;64.00;;;33.85;;
59571;SDS011;59406;45.602;11.904;2023-01-08T08:06:13;56.95;;;30.33;;
59571;SDS011;59406;45.602;11.904;2023-01-08T08:08:39;56.28;;;28.50;;
59571;SDS011;59406;45.602;11.904;2023-01-08T08:11:05;48.87;;;27.40;;
59571;SDS011;59406;45.602;11.904;2023-01-08T08:13:31;45.50;;;26.63;;
59571;SDS011;59406;45.602;11.904;2023-01-08T08:16:00;44.53;;;24.85;;
59571;SDS011;59406;45.602;11.904;2023-01-08T08:18:27;44.47;;;22.92;;
59571;SDS011;59406;45.602;11.904;2023-01-08T08:20:53;40.83;;;22.85;;
59571;SDS011;59406;45.602;11.904;2023-01-08T08:23:19;45.73;;;25.47;;
59571;SDS011;59406;45.602;11.904;2023-01-08T08:25:45;51.15;;;27.58;;
59571;SDS011;59406;45.602;11.904;2023-01-08T08:28:11;58.60;;;30.00;;
59571;SDS011;59406;45.602;11.904;2023-01-08T08:30:37;60.47;;;30.98;;
59571;SDS011;59406;45.602;11.904;2023-01-08T08:33:04;59.92;;;30.50;;
59571;SDS011;59406;45.602;11.904;2023-01-08T08:35:31;65.22;;;33.10;;
59571;SDS011;59406;45.602;11.904;2023-01-08T08:37:58;59.28;;;32.75;;
59571;SDS011;59406;45.602;11.904;2023-01-08T08:40:24;61.67;;;32.17;;
59571;SDS011;59406;45.602;11.904;2023-01-08T08:42:54;65.20;;;34.00;;
59571;SDS011;59406;45.602;11.904;2023-01-08T08:45:26;63.28;;;33.63;;
59571;SDS011;59406;45.602;11.904;2023-01-08T08:47:53;64.95;;;33.58;;
59571;SDS011;59406;45.602;11.904;2023-01-08T08:50:19;65.30;;;36.35;;
59571;SDS011;59406;45.602;11.904;2023-01-08T08:52:45;70.03;;;35.67;;
59571;SDS011;59406;45.602;11.904;2023-01-08T08:55:13;71.32;;;36.05;;
59571;SDS011;59406;45.602;11.904;2023-01-08T08:57:42;67.45;;;36.35;;
59571;SDS011;59406;45.602;11.904;2023-01-08T09:00:09;70.00;;;36.20;;
59571;SDS011;59406;45.602;11.904;2023-01-08T09:02:35;75.68;;;37.83;;
59571;SDS011;59406;45.602;11.904;2023-01-08T09:05:01;76.10;;;38.73;;
59571;SDS011;59406;45.602;11.904;2023-01-08T09:07:27;72.60;;;38.22;;
59571;SDS011;59406;45.602;11.904;2023-01-08T09:09:53;70.55;;;36.78;;
59571;SDS011;59406;45.602;11.904;2023-01-08T09:12:19;68.53;;;35.92;;
59571;SDS011;59406;45.602;11.904;2023-01-08T09:14:45;72.63;;;37.77;;
59571;SDS011;59406;45.602;11.904;2023-01-08T09:17:14;68.97;;;36.45;;
59571;SDS011;59406;45.602;11.904;2023-01-08T09:19:40;71.78;;;36.60;;
59571;SDS011;59406;45.602;11.904;2023-01-08T09:22:06;69.43;;;33.35;;
59571;SDS011;59406;45.602;11.904;2023-01-08T09:24:32;63.87;;;34.93;;
59571;SDS011;59406;45.602;11.904;2023-01-08T09:26:58;64.60;;;32.53;;
59571;SDS011;59406;45.602;11.904;2023-01-08T09:29:24;61.00;;;32.35;;
59571;SDS011;59406;45.602;11.904;2023-01-08T09:31:50;72.47;;;35.60;;
59571;SDS011;59406;45.602;11.904;2023-01-08T09:34:16;67.50;;;35.37;;
59571;SDS011;59406;45.602;11.904;2023-01-08T09:36:42;73.07;;;38.00;;
59571;SDS011;59406;45.602;11.904;2023-01-08T09:39:08;71.63;;;36.33;;
59571;SDS011;59406;45.602;11.904;2023-01-08T09:41:35;69.22;;;35.30;;
59571;SDS011;59406;45.602;11.904;2023-01-08T09:44:05;69.47;;;37.83;;
59571;SDS011;59406;45.602;11.904;2023-01-08T09:46:31;72.05;;;37.83;;
59571;SDS011;59406;45.602;11.904;2023-01-08T09:48:59;67.47;;;35.67;;
59571;SDS011;59406;45.602;11.904;2023-01-08T09:51:33;71.10;;;37.30;;
59571;SDS011;59406;45.602;11.904;2023-01-08T09:54:00;68.57;;;35.92;;
59571;SDS011;59406;45.602;11.904;2023-01-08T09:56:28;58.80;;;31.83;;
59571;SDS011;59406;45.602;11.904;2023-01-08T09:58:55;71.10;;;38.33;;
59571;SDS011;59406;45.602;11.904;2023-01-08T10:01:27;67.32;;;36.58;;
59571;SDS011;59406;45.602;11.904;2023-01-08T10:06:48;67.95;;;34.65;;
59571;SDS011;59406;45.602;11.904;2023-01-08T10:09:16;70.40;;;36.50;;
59571;SDS011;59406;45.602;11.904;2023-01-08T10:11:55;71.72;;;38.63;;
59571;SDS011;59406;45.602;11.904;2023-01-08T10:14:26;69.25;;;37.03;;
59571;SDS011;59406;45.602;11.904;2023-01-08T10:16:56;71.10;;;36.67;;
59571;SDS011;59406;45.602;11.904;2023-01-08T10:19:25;73.25;;;38.05;;
59571;SDS011;59406;45.602;11.904;2023-01-08T10:21:51;78.43;;;38.67;;
59571;SDS011;59406;45.602;11.904;2023-01-08T10:24:29;76.13;;;40.17;;
59571;SDS011;59406;45.602;11.904;2023-01-08T10:27:11;72.43;;;39.70;;
59571;SDS011;59406;45.602;11.904;2023-01-08T10:29:44;72.60;;;38.65;;
59571;SDS011;59406;45.602;11.904;2023-01-08T10:32:14;82.75;;;39.03;;
59571;SDS011;59406;45.602;11.904;2023-01-08T10:34:50;81.40;;;41.00;;
59571;SDS011;59406;45.602;11.904;2023-01-08T10:37:27;77.35;;;39.35;;
59571;SDS011;59406;45.602;11.904;2023-01-08T10:40:00;76.18;;;41.42;;
59571;SDS011;59406;45.602;11.904;2023-01-08T10:42:33;74.25;;;39.47;;
59571;SDS011;59406;45.602;11.904;2023-01-08T10:45:02;66.03;;;33.47;;
59571;SDS011;59406;45.602;11.904;2023-01-08T10:47:32;70.23;;;36.90;;
59571;SDS011;59406;45.602;11.904;2023-01-08T10:50:00;76.47;;;37.75;;
59571;SDS011;59406;45.602;11.904;2023-01-08T10:52:30;66.25;;;35.30;;
59571;SDS011;59406;45.602;11.904;2023-01-08T10:57:42;73.85;;;36.75;;
59571;SDS011;59406;45.602;11.904;2023-01-08T11:00:21;75.13;;;38.40;;
59571;SDS011;59406;45.602;11.904;2023-01-08T11:02:48;71.63;;;36.47;;
59571;SDS011;59406;45.602;11.904;2023-01-08T11:05:14;75.95;;;40.05;;
59571;SDS011;59406;45.602;11.904;2023-01-08T11:07:40;73.65;;;37.92;;
59571;SDS011;59406;45.602;11.904;2023-01-08T11:10:19;69.63;;;35.60;;
59571;SDS011;59406;45.602;11.904;2023-01-08T11:12:53;67.63;;;37.57;;
59571;SDS011;59406;45.602;11.904;2023-01-08T11:15:28;69.15;;;36.65;;
59571;SDS011;59406;45.602;11.904;2023-01-08T11:20:44;71.60;;;35.88;;
59571;SDS011;59406;45.602;11.904;2023-01-08T11:28:29;71.70;;;35.90;;
59571;SDS011;59406;45.602;11.904;2023-01-08T11:34:10;68.18;;;36.53;;
59571;SDS011;59406;45.602;11.904;2023-01-08T11:36:57;60.15;;;32.00;;
59571;SDS011;59406;45.602;11.904;2023-01-08T11:39:45;63.30;;;33.40;;
59571;SDS011;59406;45.602;11.904;2023-01-08T11:47:20;64.60;;;33.37;;
59571;SDS011;59406;45.602;11.904;2023-01-08T11:50:10;70.85;;;35.65;;
59571;SDS011;59406;45.602;11.904;2023-01-08T11:52:44;65.57;;;34.60;;
59571;SDS011;59406;45.602;11.904;2023-01-08T12:04:18;63.42;;;31.85;;
59571;SDS011;59406;45.602;11.904;2023-01-08T12:09:45;64.03;;;29.95;;
59571;SDS011;59406;45.602;11.904;2023-01-08T12:15:59;49.60;;;24.97;;
59571;SDS011;59406;45.602;11.904;2023-01-08T12:21:30;52.22;;;25.48;;
59571;SDS011;59406;45.602;11.904;2023-01-08T12:24:05;64.55;;;29.48;;
59571;SDS011;59406;45.602;11.904;2023-01-08T12:27:34;58.35;;;27.92;;
59571;SDS011;59406;45.602;11.904;2023-01-08T12:30:03;60.80;;;27.60;;
59571;SDS011;59406;45.602;11.904;2023-01-08T12:32:52;62.50;;;29.52;;
59571;SDS011;59406;45.602;11.904;2023-01-08T12:35:39;58.53;;;27.98;;
59571;SDS011;59406;45.602;11.904;2023-01-08T12:38:12;62.70;;;27.63;;
59571;SDS011;59406;45.602;11.904;2023-01-08T12:40:52;64.90;;;31.33;;
59571;SDS011;59406;45.602;11.904;2023-01-08T12:43:36;76.87;;;34.50;;
59571;SDS011;59406;45.602;11.904;2023-01-08T12:46:20;60.63;;;31.08;;
59571;SDS011;59406;45.602;11.904;2023-01-08T12:48:49;75.72;;;32.92;;
59571;SDS011;59406;45.602;11.904;2023-01-08T12:56:54;80.77;;;34.80;;
59571;SDS011;59406;45.602;11.904;2023-01-08T13:02:32;77.13;;;34.58;;
59571;SDS011;59406;45.602;11.904;2023-01-08T13:05:12;73.60;;;33.60;;
59571;SDS011;59406;45.602;11.904;2023-01-08T13:07:55;67.82;;;30.25;;
59571;SDS011;59406;45.602;11.904;2023-01-08T13:13:04;68.85;;;30.52;;
59571;SDS011;59406;45.602;11.904;2023-01-08T13:15:32;70.88;;;32.00;;
59571;SDS011;59406;45.602;11.904;2023-01-08T13:18:01;67.03;;;31.15;;
59571;SDS011;59406;45.602;11.904;2023-01-08T13:20:32;73.47;;;31.98;;
59571;SDS011;59406;45.602;11.904;2023-01-08T13:22:59;73.47;;;33.17;;
59571;SDS011;59406;45.602;11.904;2023-01-08T13:25:28;68.20;;;31.42;;
59571;SDS011;59406;45.602;11.904;2023-01-08T13:27:57;74.68;;;33.67;;
59571;SDS011;59406;45.602;11.904;2023-01-08T13:36:12;75.53;;;31.70;;
59571;SDS011;59406;45.602;11.904;2023-01-08T13:38:40;68.05;;;32.05;;
59571;SDS011;59406;45.602;11.904;2023-01-08T13:46:54;72.50;;;33.92;;
59571;SDS011;59406;45.602;11.904;2023-01-08T13:52:05;73.03;;;31.70;;
59571;SDS011;59406;45.602;11.904;2023-01-08T13:54:50;72.05;;;33.88;;
59571;SDS011;59406;45.602;11.904;2023-01-08T13:57:17;78.45;;;34.50;;
59571;SDS011;59406;45.602;11.904;2023-01-08T13:59:54;77.50;;;34.65;;
59571;SDS011;59406;45.602;11.904;2023-01-08T14:02:25;74.70;;;33.37;;
59571;SDS011;59406;45.602;11.904;2023-01-08T14:04:56;79.05;;;34.22;;
59571;SDS011;59406;45.602;11.904;2023-01-08T14:07:24;75.15;;;35.95;;
59571;SDS011;59406;45.602;11.904;2023-01-08T14:09:50;72.00;;;33.38;;
59571;SDS011;59406;45.602;11.904;2023-01-08T14:12:17;80.07;;;34.10;;
59571;SDS011;59406;45.602;11.904;2023-01-08T14:14:50;73.70;;;35.27;;
59571;SDS011;59406;45.602;11.904;2023-01-08T14:17:18;70.15;;;33.72;;
59571;SDS011;59406;45.602;11.904;2023-01-08T14:19:54;70.07;;;31.55;;
59571;SDS011;59406;45.602;11.904;2023-01-08T14:22:30;75.68;;;35.15;;
59571;SDS011;59406;45.602;11.904;2023-01-08T14:24:59;75.32;;;33.63;;
59571;SDS011;59406;45.602;11.904;2023-01-08T14:27:28;78.70;;;36.57;;
59571;SDS011;59406;45.602;11.904;2023-01-08T14:29:55;79.65;;;34.42;;
59571;SDS011;59406;45.602;11.904;2023-01-08T14:32:22;74.63;;;35.60;;
59571;SDS011;59406;45.602;11.904;2023-01-08T14:34:52;76.63;;;36.08;;
59571;SDS011;59406;45.602;11.904;2023-01-08T14:37:19;80.00;;;36.53;;
59571;SDS011;59406;45.602;11.904;2023-01-08T14:39:46;80.03;;;34.47;;
59571;SDS011;59406;45.602;11.904;2023-01-08T14:45:27;75.53;;;33.42;;
59571;SDS011;59406;45.602;11.904;2023-01-08T14:48:17;75.05;;;34.17;;
59571;SDS011;59406;45.602;11.904;2023-01-08T14:50:59;76.80;;;34.38;;
59571;SDS011;59406;45.602;11.904;2023-01-08T14:55:58;72.75;;;33.65;;
59571;SDS011;59406;45.602;11.904;2023-01-08T14:58:27;82.28;;;35.80;;
59571;SDS011;59406;45.602;11.904;2023-01-08T15:00:59;76.35;;;33.35;;
59571;SDS011;59406;45.602;11.904;2023-01-08T15:03:36;68.20;;;31.45;;
59571;SDS011;59406;45.602;11.904;2023-01-08T15:06:05;75.63;;;32.87;;
59571;SDS011;59406;45.602;11.904;2023-01-08T15:08:38;70.47;;;31.85;;
59571;SDS011;59406;45.602;11.904;2023-01-08T15:11:13;81.43;;;33.33;;
59571;SDS011;59406;45.602;11.904;2023-01-08T15:13:52;74.80;;;31.00;;
59571;SDS011;59406;45.602;11.904;2023-01-08T15:16:26;83.90;;;36.55;;
59571;SDS011;59406;45.602;11.904;2023-01-08T15:19:06;71.50;;;31.17;;
59571;SDS011;59406;45.602;11.904;2023-01-08T15:21:44;81.53;;;34.20;;
59571;SDS011;59406;45.602;11.904;2023-01-08T15:24:26;75.50;;;33.67;;
59571;SDS011;59406;45.602;11.904;2023-01-08T15:26:55;79.20;;;35.70;;
59571;SDS011;59406;45.602;11.904;2023-01-08T15:29:26;71.57;;;34.67;;
59571;SDS011;59406;45.602;11.904;2023-01-08T15:32:42;76.33;;;32.87;;
59571;SDS011;59406;45.602;11.904;2023-01-08T15:34:44;80.55;;;34.95;;
59571;SDS011;59406;45.602;11.904;2023-01-08T15:37:10;79.13;;;34.17;;
59571;SDS011;59406;45.602;11.904;2023-01-08T15:39:39;79.07;;;33.15;;
59571;SDS011;59406;45.602;11.904;2023-01-08T15:42:16;77.65;;;34.28;;
59571;SDS011;59406;45.602;11.904;2023-01-08T15:45:03;63.07;;;29.43;;
59571;SDS011;59406;45.602;11.904;2023-01-08T15:47:30;91.93;;;40.05;;
59571;SDS011;59406;45.602;11.904;2023-01-08T15:49:56;72.38;;;34.45;;
59571;SDS011;59406;45.602;11.904;2023-01-08T15:52:22;100.97;;;44.22;;
59571;SDS011;59406;45.602;11.904;2023-01-08T15:54:56;89.20;;;38.90;;
59571;SDS011;59406;45.602;11.904;2023-01-08T15:57:23;86.03;;;36.90;;